HTI weather

Hamilton Island Airport
Hamilton Island, Queensland, Australia

Public forecast

Using degrees Celsius for public forecast. Weather courtesy of forecast.io.

METAR (pilot weather report)

Retrieved 2019/01/24 10:00 UTC (22 minutes ago):

YBHM 241000Z AUTO 09017KT 9999 // OVC068 27/22 Q1011

TAF (pilot weather forecast)

Forecast is more than 12 hours old.

Retrieved 2019/01/23 00:00 UTC (1 day ago):

TAF YBHM 232315Z 2400/2412 10016KT 9999 SCT030 SCT045 FM240900 10016KT 9999 -SHRA SCT022 BKN040